createdAt,value
2023-01-28T00:01:50.917Z,100026.72
2023-01-28T00:04:19.663Z,100024.56
2023-01-28T00:06:48.471Z,100031.47
2023-01-28T00:09:17.208Z,100031.78
2023-01-28T00:11:45.416Z,100025.19
2023-01-28T00:14:13.557Z,100022.53
2023-01-28T00:16:41.594Z,100023.00
2023-01-28T00:19:09.467Z,100018.31
2023-01-28T00:21:37.633Z,100027.56
2023-01-28T00:24:07.193Z,100020.13
2023-01-28T00:26:35.556Z,100034.03
2023-01-28T00:29:03.492Z,100036.47
2023-01-28T00:31:31.388Z,100029.66
2023-01-28T00:34:01.192Z,100033.63
2023-01-28T00:36:29.276Z,100042.13
2023-01-28T00:38:59.657Z,100049.88
2023-01-28T00:41:30.145Z,100041.94
2023-01-28T00:43:59.606Z,100049.31
2023-01-28T00:46:28.046Z,100059.31
2023-01-28T00:48:56.363Z,100045.03
2023-01-28T00:51:24.476Z,100048.72
2023-01-28T00:53:52.633Z,100043.59
2023-01-28T00:56:21.268Z,100050.09
2023-01-28T00:58:50.233Z,100046.41
2023-01-28T01:01:23.288Z,100056.56
2023-01-28T01:03:57.699Z,100053.91
2023-01-28T01:06:26.617Z,100054.31
2023-01-28T01:08:55.610Z,100056.38
2023-01-28T01:11:24.985Z,100053.88
2023-01-28T01:13:58.740Z,100050.16
2023-01-28T01:16:33.323Z,100055.88
2023-01-28T01:19:01.362Z,100052.41
2023-01-28T01:21:30.905Z,100051.19
2023-01-28T01:23:58.492Z,100056.97
2023-01-28T01:26:30.080Z,100051.81
2023-01-28T01:28:58.458Z,100057.34
2023-01-28T01:31:26.306Z,100056.06
2023-01-28T01:33:53.830Z,100063.75
2023-01-28T01:36:22.324Z,100063.97
2023-01-28T01:38:55.367Z,100056.63
2023-01-28T01:41:31.171Z,100055.31
2023-01-28T01:44:05.927Z,100063.25
2023-01-28T01:46:41.350Z,100060.88
2023-01-28T01:49:28.800Z,100056.63
2023-01-28T01:52:10.852Z,100059.31
2023-01-28T01:54:42.668Z,100047.41
2023-01-28T01:57:16.153Z,100055.50
2023-01-28T02:00:07.613Z,100058.13
2023-01-28T02:02:47.764Z,100061.75
2023-01-28T02:05:21.316Z,100055.59
2023-01-28T02:08:20.979Z,100069.63
2023-01-28T02:11:02.366Z,100055.34
2023-01-28T02:13:57.169Z,100061.66
2023-01-28T02:16:26.248Z,100078.50
2023-01-28T02:18:54.121Z,100060.34
2023-01-28T02:21:26.892Z,100075.81
2023-01-28T02:24:33.650Z,100071.09
2023-01-28T02:27:37.876Z,100068.50
2023-01-28T02:30:25.220Z,100072.53
2023-01-28T02:33:04.466Z,100087.34
2023-01-28T02:35:39.638Z,100069.78
2023-01-28T02:38:17.283Z,100075.84
2023-01-28T02:41:02.549Z,100082.69
2023-01-28T02:43:43.401Z,100074.41
2023-01-28T02:46:44.519Z,100080.22
2023-01-28T02:49:42.992Z,100076.19
2023-01-28T02:52:55.668Z,100071.19
2023-01-28T02:56:29.496Z,100066.44
2023-01-28T02:59:31.309Z,100069.44
2023-01-28T03:02:25.881Z,100077.59
2023-01-28T03:05:30.903Z,100074.34
2023-01-28T03:07:59.120Z,100082.25
2023-01-28T03:10:28.684Z,100080.06
2023-01-28T03:13:17.152Z,100078.41
2023-01-28T03:16:07.430Z,100077.38
2023-01-28T03:19:06.367Z,100078.41
2023-01-28T03:22:03.489Z,100070.66
2023-01-28T03:25:06.648Z,100080.50
2023-01-28T03:28:22.096Z,100076.91
2023-01-28T03:31:39.277Z,100076.22
2023-01-28T03:34:28.548Z,100080.19
2023-01-28T03:36:56.860Z,100083.78
2023-01-28T03:39:33.690Z,100073.72
2023-01-28T03:42:07.111Z,100086.47
2023-01-28T03:44:56.064Z,100071.22
2023-01-28T03:47:30.544Z,100074.91
2023-01-28T03:50:02.343Z,100073.50
2023-01-28T03:52:35.428Z,100073.22
2023-01-28T03:55:21.017Z,100075.81
2023-01-28T03:57:48.561Z,100070.53
2023-01-28T04:00:20.253Z,100084.22
2023-01-28T04:02:48.002Z,100077.88
2023-01-28T04:05:20.294Z,100070.66
2023-01-28T04:07:54.681Z,100082.59
2023-01-28T04:10:41.671Z,100080.00
2023-01-28T04:13:14.797Z,100085.34
2023-01-28T04:15:43.584Z,100078.59
2023-01-28T04:18:12.178Z,100087.13
2023-01-28T04:20:40.793Z,100083.66
2023-01-28T04:23:08.823Z,100090.47
2023-01-28T04:25:36.808Z,100094.63
2023-01-28T04:28:08.524Z,100099.91
2023-01-28T04:30:36.532Z,100093.34
2023-01-28T04:33:23.142Z,100098.50
2023-01-28T04:36:03.183Z,100112.44
2023-01-28T04:38:54.227Z,100105.34
2023-01-28T04:41:37.147Z,100108.47
2023-01-28T04:44:11.153Z,100107.94
2023-01-28T04:46:53.854Z,100109.75
2023-01-28T04:49:35.536Z,100114.94
2023-01-28T04:52:38.792Z,100121.47
2023-01-28T04:55:16.988Z,100115.97
2023-01-28T04:57:48.768Z,100119.78
2023-01-28T05:00:17.409Z,100123.22
2023-01-28T05:02:45.251Z,100121.31
2023-01-28T05:05:13.214Z,100124.50
2023-01-28T05:08:01.558Z,100125.56
2023-01-28T05:10:30.006Z,100129.06
2023-01-28T05:12:58.976Z,100127.47
2023-01-28T05:15:26.609Z,100125.59
2023-01-28T05:18:00.065Z,100130.88
2023-01-28T05:20:33.931Z,100125.84
2023-01-28T05:23:03.556Z,100133.22
2023-01-28T05:25:43.394Z,100126.03
2023-01-28T05:28:11.333Z,100140.28
2023-01-28T05:30:39.726Z,100132.84
2023-01-28T05:33:07.523Z,100130.81
2023-01-28T05:35:36.461Z,100136.09
2023-01-28T05:38:04.337Z,100130.97
2023-01-28T05:40:32.654Z,100135.94
2023-01-28T05:43:00.828Z,100134.31
2023-01-28T05:45:54.602Z,100140.19
2023-01-28T05:48:28.207Z,100142.78
2023-01-28T05:51:19.059Z,100146.47
2023-01-28T05:53:54.710Z,100156.78
2023-01-28T05:56:23.545Z,100152.09
2023-01-28T05:58:51.327Z,100156.81
2023-01-28T06:01:20.596Z,100155.78
2023-01-28T06:03:53.696Z,100172.91
2023-01-28T06:06:21.917Z,100173.31
2023-01-28T06:08:49.667Z,100174.69
2023-01-28T06:11:23.579Z,100180.19
2023-01-28T06:13:54.567Z,100187.09
2023-01-28T06:16:40.710Z,100188.22
2023-01-28T06:19:32.812Z,100184.28
2023-01-28T06:22:00.422Z,100190.44
2023-01-28T06:24:28.232Z,100204.94
2023-01-28T06:26:55.846Z,100198.94
2023-01-28T06:29:23.875Z,100202.16
2023-01-28T06:31:51.349Z,100202.16
2023-01-28T06:34:19.234Z,100197.34
2023-01-28T06:36:46.679Z,100207.38
2023-01-28T06:39:14.842Z,100210.75
2023-01-28T06:41:42.481Z,100214.22
2023-01-28T06:44:10.258Z,100218.66
2023-01-28T06:46:37.797Z,100228.97
2023-01-28T06:49:05.571Z,100222.13
2023-01-28T06:51:33.054Z,100218.91
2023-01-28T06:54:01.413Z,100222.06
2023-01-28T06:56:28.842Z,100232.06
2023-01-28T06:58:56.757Z,100235.78
2023-01-28T07:01:24.415Z,100233.34
2023-01-28T07:03:52.200Z,100233.88
2023-01-28T07:06:19.742Z,100238.06
2023-01-28T07:08:48.281Z,100234.03
2023-01-28T07:11:16.578Z,100238.84
2023-01-28T07:13:44.991Z,100245.22
2023-01-28T07:16:12.437Z,100247.84
2023-01-28T07:18:40.173Z,100244.66
2023-01-28T07:21:07.685Z,100244.50
2023-01-28T07:23:35.571Z,100252.16
2023-01-28T07:26:04.633Z,100258.56
2023-01-28T07:28:32.918Z,100259.69
2023-01-28T07:31:00.604Z,100276.06
2023-01-28T07:33:28.578Z,100263.91
2023-01-28T07:35:56.092Z,100271.50
2023-01-28T07:38:23.773Z,100262.75
2023-01-28T07:40:51.750Z,100279.09
2023-01-28T07:43:20.362Z,100273.72
2023-01-28T07:45:50.799Z,100272.72
2023-01-28T07:48:18.680Z,100283.81
2023-01-28T07:50:48.651Z,100281.22
2023-01-28T07:53:17.734Z,100296.06
2023-01-28T07:55:45.333Z,100286.03
2023-01-28T07:58:13.175Z,100289.78
2023-01-28T08:00:40.715Z,100283.19
2023-01-28T08:03:16.925Z,100301.44
2023-01-28T08:05:51.866Z,100296.72
2023-01-28T08:08:20.078Z,100301.00
2023-01-28T08:10:48.381Z,100298.59
2023-01-28T08:13:17.871Z,100295.13
2023-01-28T08:15:46.970Z,100293.56
2023-01-28T08:18:17.236Z,100303.00
2023-01-28T08:20:47.302Z,100296.63
2023-01-28T08:23:17.487Z,100302.97
2023-01-28T08:25:46.157Z,100293.94
2023-01-28T08:28:16.087Z,100304.84
2023-01-28T08:30:44.134Z,100305.69
2023-01-28T08:33:15.451Z,100314.13
2023-01-28T08:35:43.208Z,100304.63
2023-01-28T08:38:13.555Z,100307.53
2023-01-28T08:40:41.358Z,100307.72
2023-01-28T08:43:09.612Z,100307.69
2023-01-28T08:45:37.154Z,100317.72
2023-01-28T08:48:07.980Z,100311.41
2023-01-28T08:50:38.868Z,100306.16
2023-01-28T08:53:13.719Z,100319.09
2023-01-28T08:55:41.758Z,100314.38
2023-01-28T08:58:17.524Z,100322.09
2023-01-28T09:00:46.336Z,100322.13
2023-01-28T09:03:14.143Z,100331.13
2023-01-28T09:05:42.334Z,100325.28
2023-01-28T09:08:14.614Z,100331.59
2023-01-28T09:10:43.052Z,100328.53
2023-01-28T09:13:14.993Z,100328.03
2023-01-28T09:15:43.075Z,100336.41
2023-01-28T09:18:11.802Z,100329.41
2023-01-28T09:20:40.029Z,100326.47
2023-01-28T09:23:08.655Z,100335.50
2023-01-28T09:25:37.558Z,100334.25
2023-01-28T09:28:07.526Z,100340.09
2023-01-28T09:30:37.385Z,100338.31
2023-01-28T09:33:06.783Z,100333.31
2023-01-28T09:35:35.351Z,100340.19
2023-01-28T09:38:03.892Z,100340.25
2023-01-28T09:40:42.291Z,100332.94
2023-01-28T09:43:59.758Z,100350.03
2023-01-28T09:46:38.999Z,100341.34
2023-01-28T09:49:33.078Z,100337.59
2023-01-28T09:52:01.893Z,100346.66
2023-01-28T09:54:44.128Z,100335.59
2023-01-28T09:57:25.845Z,100330.56
2023-01-28T09:59:53.895Z,100335.84
2023-01-28T10:02:23.994Z,100343.50
2023-01-28T10:05:40.957Z,100341.91
2023-01-28T10:08:46.958Z,100343.16
2023-01-28T10:12:11.097Z,100350.22
2023-01-28T10:14:53.928Z,100342.28
2023-01-28T10:17:37.912Z,100339.16
2023-01-28T10:20:19.357Z,100345.22
2023-01-28T10:23:12.630Z,100338.09
2023-01-28T10:25:45.172Z,100334.41
2023-01-28T10:28:25.590Z,100336.56
2023-01-28T10:30:53.686Z,100339.72
2023-01-28T10:33:40.083Z,100341.03
2023-01-28T10:36:09.473Z,100334.09
2023-01-28T10:38:37.763Z,100346.47
2023-01-28T10:41:08.741Z,100350.16
2023-01-28T10:43:41.845Z,100340.53
2023-01-28T10:46:33.889Z,100340.19
2023-01-28T10:49:18.993Z,100344.75
2023-01-28T10:51:46.776Z,100357.22
2023-01-28T10:54:27.227Z,100343.31
2023-01-28T10:57:19.097Z,100344.94
2023-01-28T10:59:49.819Z,100347.38
2023-01-28T11:02:36.585Z,100351.34
2023-01-28T11:05:17.729Z,100357.72
2023-01-28T11:07:45.777Z,100345.31
2023-01-28T11:10:34.734Z,100349.22
2023-01-28T11:13:05.458Z,100354.56
2023-01-28T11:15:34.057Z,100356.41
2023-01-28T11:18:08.462Z,100353.22
2023-01-28T11:20:49.632Z,100351.03
2023-01-28T11:23:34.305Z,100342.28
2023-01-28T11:26:37.584Z,100336.97
2023-01-28T11:29:06.044Z,100335.31
2023-01-28T11:31:44.114Z,100336.91
2023-01-28T11:34:19.765Z,100336.09
2023-01-28T11:36:53.973Z,100339.47
2023-01-28T11:39:27.644Z,100340.88
2023-01-28T11:42:04.027Z,100339.22
2023-01-28T11:44:31.643Z,100336.25
2023-01-28T11:47:17.679Z,100335.44
2023-01-28T11:50:25.866Z,100335.34
2023-01-28T11:53:06.791Z,100351.03
2023-01-28T11:56:06.555Z,100338.72
2023-01-28T11:59:03.752Z,100339.38
2023-01-28T12:02:21.532Z,100344.16
2023-01-28T12:05:42.638Z,100344.13
2023-01-28T12:08:25.066Z,100344.03
2023-01-28T12:11:17.725Z,100351.38
2023-01-28T12:13:53.577Z,100344.69
2023-01-28T12:16:41.716Z,100343.75
2023-01-28T12:19:23.852Z,100343.00
2023-01-28T12:22:09.795Z,100352.59
2023-01-28T12:25:03.571Z,100343.63
2023-01-28T12:28:01.612Z,100342.22
2023-01-28T12:31:25.769Z,100343.00
2023-01-28T12:34:18.892Z,100337.72
2023-01-28T12:36:54.790Z,100340.09
2023-01-28T12:39:58.816Z,100341.38
2023-01-28T12:42:38.152Z,100349.31
2023-01-28T12:45:12.037Z,100346.69
2023-01-28T12:47:43.673Z,100345.88
2023-01-28T12:50:37.844Z,100350.44
2023-01-28T12:53:49.180Z,100353.09
2023-01-28T12:56:22.789Z,100352.31
2023-01-28T12:58:56.789Z,100354.63
2023-01-28T13:01:43.135Z,100347.75
2023-01-28T13:04:33.670Z,100347.69
2023-01-28T13:07:41.286Z,100368.22
2023-01-28T13:10:38.705Z,100360.31
2023-01-28T13:13:08.024Z,100373.50
2023-01-28T13:15:40.772Z,100367.19
2023-01-28T13:18:48.537Z,100374.56
2023-01-28T13:21:27.829Z,100374.53
2023-01-28T13:24:19.990Z,100371.94
2023-01-28T13:26:56.648Z,100381.81
2023-01-28T13:29:34.310Z,100387.13
2023-01-28T13:32:23.624Z,100400.66
2023-01-28T13:35:02.146Z,100381.41
2023-01-28T13:37:43.915Z,100398.06
2023-01-28T13:40:14.941Z,100398.56
2023-01-28T13:42:42.925Z,100403.34
2023-01-28T13:45:16.957Z,100399.84
2023-01-28T13:47:49.154Z,100397.78
2023-01-28T13:50:23.227Z,100403.34
2023-01-28T13:53:43.183Z,100404.88
2023-01-28T13:56:25.986Z,100417.78
2023-01-28T13:59:02.465Z,100427.53
2023-01-28T14:02:05.539Z,100425.97
2023-01-28T14:04:45.021Z,100414.31
2023-01-28T14:07:43.386Z,100426.16
2023-01-28T14:10:59.602Z,100421.13
2023-01-28T14:13:44.879Z,100423.13
2023-01-28T14:16:52.347Z,100427.34
2023-01-28T14:19:28.464Z,100424.47
2023-01-28T14:21:57.001Z,100421.00
2023-01-28T14:24:26.095Z,100427.59
2023-01-28T14:26:58.617Z,100434.47
2023-01-28T14:29:59.186Z,100433.41
2023-01-28T14:32:31.733Z,100437.34
2023-01-28T14:35:09.420Z,100440.28
2023-01-28T14:37:38.839Z,100446.13
2023-01-28T14:40:16.877Z,100436.06
2023-01-28T14:42:52.548Z,100437.13
2023-01-28T14:45:57.983Z,100446.06
2023-01-28T14:49:08.422Z,100448.19
2023-01-28T14:52:02.688Z,100450.03
2023-01-28T14:55:14.815Z,100444.50
2023-01-28T14:58:16.813Z,100450.59
2023-01-28T15:00:55.823Z,100446.13
2023-01-28T15:03:25.491Z,100444.53
2023-01-28T15:06:25.392Z,100449.25
2023-01-28T15:08:53.902Z,100455.81
2023-01-28T15:11:26.107Z,100455.28
2023-01-28T15:13:59.600Z,100457.91
2023-01-28T15:16:35.015Z,100456.03
2023-01-28T15:19:03.029Z,100453.34
2023-01-28T15:21:31.205Z,100461.88
2023-01-28T15:24:01.394Z,100451.31
2023-01-28T15:26:34.724Z,100472.41
2023-01-28T15:29:02.822Z,100468.22
2023-01-28T15:31:34.618Z,100459.78
2023-01-28T15:34:16.633Z,100470.34
2023-01-28T15:36:44.899Z,100469.28
2023-01-28T15:39:23.462Z,100476.75
2023-01-28T15:42:03.252Z,100466.97
2023-01-28T15:44:46.552Z,100470.91
2023-01-28T15:47:43.033Z,100475.13
2023-01-28T15:50:21.271Z,100478.56
2023-01-28T15:52:49.529Z,100472.22
2023-01-28T15:55:41.766Z,100477.22
2023-01-28T15:58:26.481Z,100486.72
2023-01-28T16:01:09.174Z,100486.59
2023-01-28T16:03:40.106Z,100500.09
2023-01-28T16:06:23.877Z,100495.09
2023-01-28T16:09:02.643Z,100501.44
2023-01-28T16:11:45.029Z,100499.91
2023-01-28T16:14:54.386Z,100505.19
2023-01-28T16:17:36.169Z,100512.59
2023-01-28T16:20:19.407Z,100514.16
2023-01-28T16:22:47.599Z,100516.53
2023-01-28T16:25:24.182Z,100518.63
2023-01-28T16:27:52.426Z,100534.75
2023-01-28T16:30:20.080Z,100537.97
2023-01-28T16:32:48.613Z,100536.41
2023-01-28T16:35:23.519Z,100548.78
2023-01-28T16:37:51.811Z,100540.34
2023-01-28T16:40:23.209Z,100555.44
2023-01-28T16:42:55.761Z,100548.25
2023-01-28T16:45:25.394Z,100557.28
2023-01-28T16:47:53.796Z,100551.97
2023-01-28T16:50:23.132Z,100560.91
2023-01-28T16:52:54.040Z,100562.00
2023-01-28T16:55:23.297Z,100562.84
2023-01-28T16:57:55.732Z,100561.78
2023-01-28T17:00:26.332Z,100560.50
2023-01-28T17:02:55.178Z,100564.69
2023-01-28T17:05:23.608Z,100575.00
2023-01-28T17:07:55.173Z,100578.94
2023-01-28T17:10:22.875Z,100576.56
2023-01-28T17:12:50.964Z,100576.31
2023-01-28T17:15:19.370Z,100575.53
2023-01-28T17:17:53.011Z,100580.31
2023-01-28T17:20:20.661Z,100584.59
2023-01-28T17:22:48.633Z,100586.13
2023-01-28T17:25:16.955Z,100586.66
2023-01-28T17:27:45.164Z,100597.47
2023-01-28T17:30:13.767Z,100593.00
2023-01-28T17:32:41.678Z,100589.88
2023-01-28T17:35:10.591Z,100593.31
2023-01-28T17:37:38.439Z,100596.72
2023-01-28T17:40:06.773Z,100603.09
2023-01-28T17:42:34.531Z,100606.53
2023-01-28T17:45:03.237Z,100600.47
2023-01-28T17:47:31.794Z,100606.53
2023-01-28T17:49:59.403Z,100608.16
2023-01-28T17:52:27.337Z,100612.91
2023-01-28T17:54:54.784Z,100610.56
2023-01-28T17:57:23.148Z,100607.63
2023-01-28T17:59:50.606Z,100624.28
2023-01-28T18:02:18.540Z,100623.22
2023-01-28T18:04:46.050Z,100623.22
2023-01-28T18:07:13.967Z,100620.31
2023-01-28T18:09:44.047Z,100626.66
2023-01-28T18:12:15.874Z,100625.31
2023-01-28T18:14:43.450Z,100629.00
2023-01-28T18:17:11.781Z,100620.25
2023-01-28T18:19:40.455Z,100630.06
2023-01-28T18:22:08.902Z,100624.22
2023-01-28T18:24:36.597Z,100636.13
2023-01-28T18:27:04.593Z,100636.94
2023-01-28T18:29:32.816Z,100640.91
2023-01-28T18:32:00.967Z,100641.19
2023-01-28T18:34:31.717Z,100642.28
2023-01-28T18:36:59.802Z,100642.81
2023-01-28T18:39:30.369Z,100653.38
2023-01-28T18:41:59.529Z,100651.25
2023-01-28T18:44:30.207Z,100657.03
2023-01-28T18:46:58.149Z,100653.34
2023-01-28T18:49:25.728Z,100652.56
2023-01-28T18:51:54.164Z,100660.75
2023-01-28T18:54:21.846Z,100650.69
2023-01-28T18:56:50.067Z,100652.28
2023-01-28T18:59:17.687Z,100649.09
2023-01-28T19:01:47.935Z,100656.00
2023-01-28T19:04:16.547Z,100653.34
2023-01-28T19:06:45.199Z,100652.84
2023-01-28T19:09:15.865Z,100654.16
2023-01-28T19:11:44.943Z,100658.66
2023-01-28T19:14:14.406Z,100656.53
2023-01-28T19:16:42.781Z,100648.56
2023-01-28T19:19:10.853Z,100653.34
2023-01-28T19:21:38.736Z,100663.38
2023-01-28T19:24:09.839Z,100662.59
2023-01-28T19:26:39.348Z,100662.31
2023-01-28T19:29:09.835Z,100666.03
2023-01-28T19:31:39.215Z,100672.88
2023-01-28T19:34:07.257Z,100669.72
2023-01-28T19:36:35.739Z,100669.97
2023-01-28T19:39:07.678Z,100676.59
2023-01-28T19:41:37.316Z,100677.91
2023-01-28T19:44:06.336Z,100679.53
2023-01-28T19:46:38.660Z,100675.56
2023-01-28T19:49:09.249Z,100680.06
2023-01-28T19:51:37.334Z,100685.63
2023-01-28T19:54:05.120Z,100677.94
2023-01-28T19:56:36.935Z,100679.28
2023-01-28T19:59:04.855Z,100676.88
2023-01-28T20:01:32.729Z,100675.78
2023-01-28T20:04:02.089Z,100679.25
2023-01-28T20:06:31.772Z,100679.25
2023-01-28T20:09:10.690Z,100667.09
2023-01-28T20:11:38.522Z,100671.34
2023-01-28T20:14:06.127Z,100678.72
2023-01-28T20:16:37.074Z,100671.88
2023-01-28T20:19:09.576Z,100674.78
2023-01-28T20:21:45.503Z,100680.84
2023-01-28T20:24:20.428Z,100670.81
2023-01-28T20:26:55.282Z,100678.72
2023-01-28T20:29:33.374Z,100685.88
2023-01-28T20:32:17.756Z,100680.84
2023-01-28T20:34:58.909Z,100685.09
2023-01-28T20:37:35.485Z,100689.31
2023-01-28T20:40:11.506Z,100677.69
2023-01-28T20:42:48.174Z,100679.53
2023-01-28T20:48:19.199Z,100688.75
2023-01-28T20:50:58.895Z,100693.53
2023-01-28T20:53:40.067Z,100693.53
2023-01-28T20:56:27.093Z,100696.97
2023-01-28T20:59:11.018Z,100698.06
2023-01-28T21:01:48.723Z,100695.13
2023-01-28T21:04:54.911Z,100699.59
2023-01-28T21:07:35.176Z,100703.59
2023-01-28T21:10:20.717Z,100705.16
2023-01-28T21:12:56.616Z,100709.16
2023-01-28T21:15:35.745Z,100709.16
2023-01-28T21:18:18.568Z,100706.25
2023-01-28T21:21:06.763Z,100721.59
2023-01-28T21:23:45.614Z,100710.72
2023-01-28T21:26:27.385Z,100711.00
2023-01-28T21:29:08.940Z,100708.88
2023-01-28T21:31:47.148Z,100715.22
2023-01-28T21:34:25.195Z,100718.66
2023-01-28T21:36:57.237Z,100722.38
2023-01-28T21:39:25.634Z,100718.94
2023-01-28T21:42:04.598Z,100717.06
2023-01-28T21:44:48.422Z,100713.66
2023-01-28T21:47:29.102Z,100721.84
2023-01-28T21:50:11.501Z,100725.78
2023-01-28T21:52:56.436Z,100734.78
2023-01-28T21:55:45.807Z,100720.50
2023-01-28T21:58:47.654Z,100726.88
2023-01-28T22:01:27.965Z,100725.25
2023-01-28T22:04:08.918Z,100733.19
2023-01-28T22:06:51.066Z,100739.00
2023-01-28T22:09:29.308Z,100743.78
2023-01-28T22:12:11.294Z,100734.25
2023-01-28T22:14:45.527Z,100741.91
2023-01-28T22:17:34.505Z,100741.66
2023-01-28T22:20:11.936Z,100747.22
2023-01-28T22:22:47.222Z,100741.38
2023-01-28T22:25:28.327Z,100750.09
2023-01-28T22:28:03.914Z,100753.31
2023-01-28T22:30:38.808Z,100752.50
2023-01-28T22:33:18.138Z,100753.31
2023-01-28T22:36:03.025Z,100756.47
2023-01-28T22:38:41.834Z,100753.81
2023-01-28T22:41:25.170Z,100764.41
2023-01-28T22:43:59.202Z,100756.97
2023-01-28T22:46:43.251Z,100762.78
2023-01-28T22:49:23.561Z,100759.63
2023-01-28T22:52:02.113Z,100760.91
2023-01-28T22:54:32.413Z,100756.19
2023-01-28T22:57:01.637Z,100755.66
2023-01-28T22:59:29.268Z,100756.97
2023-01-28T23:01:58.364Z,100751.97
2023-01-28T23:04:29.707Z,100760.66
2023-01-28T23:07:00.408Z,100754.06
2023-01-28T23:09:28.539Z,100767.28
2023-01-28T23:11:56.646Z,100761.47
2023-01-28T23:14:42.754Z,100751.69
2023-01-28T23:17:29.242Z,100770.22
2023-01-28T23:20:16.097Z,100763.31
2023-01-28T23:23:02.695Z,100767.81
2023-01-28T23:25:30.353Z,100767.03
2023-01-28T23:27:58.111Z,100774.16
2023-01-28T23:30:25.649Z,100778.38
2023-01-28T23:32:58.267Z,100770.72
2023-01-28T23:35:27.658Z,100774.94
2023-01-28T23:37:56.348Z,100774.41
2023-01-28T23:40:24.726Z,100764.91
2023-01-28T23:42:53.340Z,100769.91
2023-01-28T23:45:22.363Z,100774.13
2023-01-28T23:47:50.693Z,100789.19
2023-01-28T23:50:18.815Z,100778.09
2023-01-28T23:52:46.773Z,100779.94
2023-01-28T23:55:16.098Z,100777.06
2023-01-28T23:57:43.948Z,100780.97
